createdAt,value
2023-12-07T00:01:41.744Z,102115.66
2023-12-07T00:04:45.743Z,102119.25
2023-12-07T00:07:49.453Z,102107.09
2023-12-07T00:10:53.214Z,102111.50
2023-12-07T00:13:56.964Z,102105.38
2023-12-07T00:17:02.148Z,102108.06
2023-12-07T00:20:06.966Z,102117.50
2023-12-07T00:23:10.738Z,102118.31
2023-12-07T00:26:14.526Z,102114.88
2023-12-07T00:29:18.408Z,102115.75
2023-12-07T00:32:23.685Z,102109.72
2023-12-07T00:35:30.231Z,102116.63
2023-12-07T00:38:34.581Z,102118.34
2023-12-07T00:41:40.428Z,102120.97
2023-12-07T00:44:44.283Z,102124.41
2023-12-07T00:47:49.419Z,102121.09
2023-12-07T00:50:53.119Z,102120.97
2023-12-07T00:53:57.177Z,102122.66
2023-12-07T00:57:00.921Z,102131.31
2023-12-07T01:00:05.474Z,102126.91
2023-12-07T01:03:10.670Z,102145.13
2023-12-07T01:06:15.493Z,102136.47
2023-12-07T01:09:19.261Z,102143.41
2023-12-07T01:12:23.270Z,102136.47
2023-12-07T01:15:27.164Z,102138.19
2023-12-07T01:18:32.411Z,102150.25
2023-12-07T01:21:36.170Z,102152.81
2023-12-07T01:24:40.005Z,102158.03
2023-12-07T01:27:43.800Z,102151.97
2023-12-07T01:30:47.730Z,102169.25
2023-12-07T01:33:52.977Z,102167.59
2023-12-07T01:36:56.814Z,102165.03
2023-12-07T01:40:00.723Z,102173.69
2023-12-07T01:43:04.655Z,102168.53
2023-12-07T01:46:08.782Z,102164.03
2023-12-07T01:49:14.262Z,102162.44
2023-12-07T01:52:19.498Z,102165.03
2023-12-07T01:55:25.660Z,102165.91
2023-12-07T01:58:29.744Z,102166.78
2023-12-07T02:01:33.641Z,102167.66
2023-12-07T02:04:39.638Z,102171.97
2023-12-07T02:07:44.182Z,102168.63
2023-12-07T02:10:48.108Z,102170.25
2023-12-07T02:13:56.273Z,102158.31
2023-12-07T02:17:13.874Z,102160.88
2023-12-07T02:20:31.041Z,102163.44
2023-12-07T02:23:46.462Z,102165.97
2023-12-07T02:26:55.159Z,102166.91
2023-12-07T02:29:59.025Z,102167.78
2023-12-07T02:33:03.131Z,102168.59
2023-12-07T02:36:07.932Z,102164.34
2023-12-07T02:39:13.815Z,102157.47
2023-12-07T02:42:19.960Z,102156.63
2023-12-07T02:45:24.342Z,102159.25
2023-12-07T02:48:28.557Z,102147.94
2023-12-07T02:51:32.619Z,102153.13
2023-12-07T02:54:36.433Z,102152.34
2023-12-07T02:57:41.725Z,102152.31
2023-12-07T03:00:45.494Z,102154.06
2023-12-07T03:03:49.465Z,102163.44
2023-12-07T03:06:53.303Z,102163.44
2023-12-07T03:09:57.189Z,102164.19
2023-12-07T03:13:02.414Z,102162.50
2023-12-07T03:16:11.723Z,102150.50
2023-12-07T03:19:15.595Z,102155.69
2023-12-07T03:22:19.968Z,102154.00
2023-12-07T03:25:23.938Z,102158.28
2023-12-07T03:28:29.137Z,102160.06
2023-12-07T03:31:33.936Z,102160.00
2023-12-07T03:34:37.826Z,102166.81
2023-12-07T03:37:41.693Z,102170.28
2023-12-07T03:40:49.009Z,102167.78
2023-12-07T03:43:54.981Z,102160.84
2023-12-07T03:46:59.043Z,102163.50
2023-12-07T03:50:02.765Z,102171.25
2023-12-07T03:53:06.528Z,102172.91
2023-12-07T03:56:11.509Z,102174.63
2023-12-07T03:59:16.710Z,102179.72
2023-12-07T04:02:20.432Z,102171.97
2023-12-07T04:05:24.245Z,102171.06
2023-12-07T04:08:27.967Z,102167.75
2023-12-07T04:11:31.788Z,102167.66
2023-12-07T04:14:36.910Z,102178.13
2023-12-07T04:17:40.759Z,102169.50
2023-12-07T04:20:44.526Z,102170.44
2023-12-07T04:23:48.366Z,102177.31
2023-12-07T04:26:52.077Z,102169.56
2023-12-07T04:29:58.187Z,102177.28
2023-12-07T04:33:02.954Z,102169.50
2023-12-07T04:36:08.982Z,102178.97
2023-12-07T04:39:12.714Z,102169.56
2023-12-07T04:42:16.542Z,102161.78
2023-12-07T04:45:22.155Z,102156.53
2023-12-07T04:48:26.939Z,102158.44
2023-12-07T04:51:30.672Z,102164.41
2023-12-07T04:54:34.407Z,102161.00
2023-12-07T04:57:39.297Z,102163.50
2023-12-07T05:00:44.668Z,102160.88
2023-12-07T05:03:48.602Z,102167.75
2023-12-07T05:06:53.160Z,102170.41
2023-12-07T05:09:56.984Z,102166.16
2023-12-07T05:13:00.927Z,102173.16
2023-12-07T05:16:07.053Z,102164.41
2023-12-07T05:19:11.122Z,102168.78
2023-12-07T05:22:16.595Z,102174.00
2023-12-07T05:25:21.244Z,102166.38
2023-12-07T05:28:25.085Z,102176.56
2023-12-07T05:31:30.380Z,102179.13
2023-12-07T05:34:34.814Z,102173.06
2023-12-07T05:37:39.192Z,102165.34
2023-12-07T05:40:43.162Z,102161.00
2023-12-07T05:43:47.109Z,102168.81
2023-12-07T05:46:52.444Z,102164.47
2023-12-07T05:49:58.717Z,102174.03
2023-12-07T05:53:02.455Z,102166.31
2023-12-07T05:56:07.171Z,102167.22
2023-12-07T05:59:11.098Z,102175.06
2023-12-07T06:02:16.336Z,102173.38
2023-12-07T06:05:20.347Z,102174.94
2023-12-07T06:08:24.211Z,102172.47
2023-12-07T06:11:27.971Z,102178.47
2023-12-07T06:14:33.359Z,102175.78
2023-12-07T06:17:38.555Z,102180.13
2023-12-07T06:20:43.318Z,102186.97
2023-12-07T06:23:47.629Z,102184.41
2023-12-07T06:26:51.523Z,102180.78
2023-12-07T06:29:55.274Z,102188.75
2023-12-07T06:33:00.409Z,102197.31
2023-12-07T06:36:05.382Z,102198.19
2023-12-07T06:39:09.574Z,102206.81
2023-12-07T06:42:13.444Z,102199.91
2023-12-07T06:45:30.758Z,102200.03
2023-12-07T06:48:36.410Z,102203.34
2023-12-07T06:51:40.343Z,102190.41
2023-12-07T06:54:44.156Z,102193.19
2023-12-07T06:57:47.945Z,102192.44
2023-12-07T07:00:51.773Z,102190.78
2023-12-07T07:03:57.808Z,102195.91
2023-12-07T07:07:01.929Z,102190.00
2023-12-07T07:10:06.590Z,102189.66
2023-12-07T07:13:10.613Z,102194.06
2023-12-07T07:16:14.494Z,102194.00
2023-12-07T07:19:19.879Z,102181.81
2023-12-07T07:22:23.782Z,102188.78
2023-12-07T07:25:27.730Z,102176.56
2023-12-07T07:28:31.790Z,102181.97
2023-12-07T07:31:36.736Z,102187.13
2023-12-07T07:34:42.138Z,102189.72
2023-12-07T07:37:46.422Z,102193.31
2023-12-07T07:40:50.278Z,102197.66
2023-12-07T07:43:54.053Z,102202.75
2023-12-07T07:46:58.129Z,102201.78
2023-12-07T07:50:06.655Z,102201.78
2023-12-07T07:53:10.628Z,102203.50
2023-12-07T07:56:14.949Z,102198.47
2023-12-07T07:59:18.700Z,102199.34
2023-12-07T08:02:23.821Z,102202.84
2023-12-07T08:05:29.001Z,102200.34
2023-12-07T08:08:33.814Z,102195.09
2023-12-07T08:11:37.553Z,102202.03
2023-12-07T08:14:44.959Z,102207.59
2023-12-07T08:17:49.022Z,102204.78
2023-12-07T08:20:54.198Z,102210.84
2023-12-07T08:23:57.964Z,102213.56
2023-12-07T08:27:01.806Z,102204.72
2023-12-07T08:30:07.226Z,102217.00
2023-12-07T08:33:11.111Z,102215.84
2023-12-07T08:36:17.584Z,102208.94
2023-12-07T08:39:21.305Z,102209.06
2023-12-07T08:42:25.119Z,102212.47
2023-12-07T08:45:29.011Z,102213.63
2023-12-07T08:48:33.294Z,102215.13
2023-12-07T08:51:39.290Z,102211.75
2023-12-07T08:54:43.183Z,102222.97
2023-12-07T08:57:46.966Z,102229.19
2023-12-07T09:00:51.746Z,102234.47
2023-12-07T09:03:55.533Z,102234.63
2023-12-07T09:07:00.909Z,102239.06
2023-12-07T09:10:05.109Z,102238.03
2023-12-07T09:13:08.883Z,102243.25
2023-12-07T09:16:12.754Z,102243.16
2023-12-07T09:19:16.788Z,102251.88
2023-12-07T09:22:26.498Z,102249.47
2023-12-07T09:25:36.527Z,102250.38
2023-12-07T09:28:43.952Z,102251.19
2023-12-07T09:31:50.121Z,102250.53
2023-12-07T09:34:54.473Z,102251.63
2023-12-07T09:37:59.810Z,102254.41
2023-12-07T09:41:04.620Z,102239.91
2023-12-07T09:44:08.510Z,102238.16
2023-12-07T09:47:15.222Z,102235.81
2023-12-07T09:50:22.730Z,102232.81
2023-12-07T09:53:30.114Z,102227.56
2023-12-07T09:56:33.989Z,102227.09
2023-12-07T09:59:38.265Z,102230.72
2023-12-07T10:02:43.868Z,102220.25
2023-12-07T10:05:58.272Z,102215.84
2023-12-07T10:09:14.710Z,102213.75
2023-12-07T10:12:21.200Z,102206.41
2023-12-07T10:15:27.350Z,102201.19
2023-12-07T10:18:31.202Z,102200.22
2023-12-07T10:21:35.572Z,102204.34
2023-12-07T10:24:40.794Z,102203.78
2023-12-07T10:27:45.041Z,102188.06
2023-12-07T10:30:48.979Z,102188.13
2023-12-07T10:33:53.292Z,102186.38
2023-12-07T10:36:59.168Z,102188.94
2023-12-07T10:40:07.066Z,102181.47
2023-12-07T10:43:11.453Z,102174.63
2023-12-07T10:46:18.425Z,102174.81
2023-12-07T10:49:32.514Z,102174.78
2023-12-07T10:52:42.420Z,102172.47
2023-12-07T10:55:54.606Z,102170.78
2023-12-07T10:59:01.259Z,102168.19
2023-12-07T11:02:08.371Z,102168.03
2023-12-07T11:05:12.673Z,102158.88
2023-12-07T11:08:27.466Z,102155.50
2023-12-07T11:11:41.565Z,102145.16
2023-12-07T11:14:46.240Z,102134.22
2023-12-07T11:17:55.412Z,102127.72
2023-12-07T11:21:00.750Z,102125.31
2023-12-07T11:24:06.146Z,102126.44
2023-12-07T11:27:11.349Z,102116.13
2023-12-07T11:30:17.337Z,102113.69
2023-12-07T11:33:22.482Z,102100.44
2023-12-07T11:36:27.119Z,102102.19
2023-12-07T11:39:37.206Z,102090.47
2023-12-07T11:42:44.394Z,102092.19
2023-12-07T11:45:52.676Z,102069.81
2023-12-07T11:48:58.296Z,102075.50
2023-12-07T11:52:02.626Z,102074.53
2023-12-07T11:55:07.650Z,102072.03
2023-12-07T11:58:16.398Z,102065.19
2023-12-07T12:01:20.291Z,102071.16
2023-12-07T12:04:24.792Z,102070.94
2023-12-07T12:07:29.065Z,102069.16
2023-12-07T12:10:32.930Z,102067.22
2023-12-07T12:13:39.145Z,102057.97
2023-12-07T12:16:43.256Z,102066.72
2023-12-07T12:19:47.169Z,102059.94
2023-12-07T12:22:54.638Z,102060.53
2023-12-07T12:25:59.420Z,102047.84
2023-12-07T12:29:05.272Z,102053.66
2023-12-07T12:32:11.539Z,102052.69
2023-12-07T12:35:16.902Z,102057.84
2023-12-07T12:38:27.717Z,102050.06
2023-12-07T12:41:40.407Z,102056.22
2023-12-07T12:44:47.290Z,102064.03
2023-12-07T12:47:51.410Z,102065.53
2023-12-07T12:50:55.417Z,102064.78
2023-12-07T12:54:01.958Z,102071.97
2023-12-07T12:57:09.114Z,102063.16
2023-12-07T13:00:16.397Z,102057.06
2023-12-07T13:03:20.360Z,102055.41
2023-12-07T13:06:24.203Z,102054.75
2023-12-07T13:09:28.114Z,102035.78
2023-12-07T13:12:35.735Z,102032.50
2023-12-07T13:15:41.213Z,102034.94
2023-12-07T13:18:45.166Z,102025.41
2023-12-07T13:21:49.020Z,102027.91
2023-12-07T13:24:52.781Z,102030.41
2023-12-07T13:27:56.737Z,102021.84
2023-12-07T13:31:01.889Z,102012.25
2023-12-07T13:34:09.232Z,102010.47
2023-12-07T13:37:16.047Z,102005.13
2023-12-07T13:40:19.983Z,102000.78
2023-12-07T13:43:25.339Z,102004.16
2023-12-07T13:46:31.369Z,101995.38
2023-12-07T13:49:35.381Z,101990.28
2023-12-07T13:52:39.518Z,101993.38
2023-12-07T13:55:43.666Z,101998.44
2023-12-07T13:58:47.579Z,101998.53
2023-12-07T14:01:52.799Z,101998.69
2023-12-07T14:04:56.872Z,101995.09
2023-12-07T14:08:01.001Z,102001.06
2023-12-07T14:11:04.828Z,102008.97
2023-12-07T14:14:08.639Z,102006.34
2023-12-07T14:17:15.077Z,102008.72
2023-12-07T14:20:34.657Z,102020.22
2023-12-07T14:23:45.406Z,102025.44
2023-12-07T14:26:56.107Z,102016.63
2023-12-07T14:30:00.357Z,102008.09
2023-12-07T14:33:05.890Z,102011.31
2023-12-07T14:36:13.833Z,102023.31
2023-12-07T14:39:18.935Z,102031.09
2023-12-07T14:42:23.277Z,102046.53
2023-12-07T14:45:29.613Z,102039.47
2023-12-07T14:48:35.046Z,102037.09
2023-12-07T14:51:39.169Z,102031.69
2023-12-07T14:54:43.059Z,102037.78
2023-12-07T14:57:49.457Z,102042.94
2023-12-07T15:00:55.354Z,102042.91
2023-12-07T15:04:01.105Z,102045.56
2023-12-07T15:07:06.360Z,102054.06
2023-12-07T15:10:10.925Z,102052.22
2023-12-07T15:13:15.292Z,102054.97
2023-12-07T15:16:19.255Z,102055.66
2023-12-07T15:19:24.562Z,102061.69
2023-12-07T15:22:29.374Z,102062.59
2023-12-07T15:25:33.466Z,102066.88
2023-12-07T15:28:37.521Z,102069.47
2023-12-07T15:31:41.354Z,102075.47
2023-12-07T15:34:46.516Z,102079.03
2023-12-07T15:37:50.331Z,102087.59
2023-12-07T15:40:56.962Z,102097.91
2023-12-07T15:44:00.796Z,102089.28
2023-12-07T15:47:04.944Z,102078.94
2023-12-07T15:50:12.617Z,102072.94
2023-12-07T15:53:16.474Z,102073.00
2023-12-07T15:56:24.654Z,102064.22
2023-12-07T15:59:30.989Z,102056.53
2023-12-07T16:02:36.032Z,102051.97
2023-12-07T16:05:41.400Z,102051.78
2023-12-07T16:08:46.174Z,102054.28
2023-12-07T16:11:50.026Z,102053.25
2023-12-07T16:14:57.426Z,102048.81
2023-12-07T16:18:01.382Z,102035.72
2023-12-07T16:21:09.113Z,102041.59
2023-12-07T16:24:13.821Z,102046.72
2023-12-07T16:27:17.591Z,102040.56
2023-12-07T16:30:21.353Z,102040.50
2023-12-07T16:33:25.258Z,102041.06
2023-12-07T16:36:30.496Z,102028.94
2023-12-07T16:39:34.311Z,102020.97
2023-12-07T16:42:39.714Z,102018.94
2023-12-07T16:45:43.572Z,102025.94
2023-12-07T16:48:47.524Z,102022.31
2023-12-07T16:51:53.113Z,102023.09
2023-12-07T16:54:57.003Z,102011.72
2023-12-07T16:58:00.834Z,102004.56
2023-12-07T17:01:05.127Z,102007.91
2023-12-07T17:04:09.285Z,102008.91
2023-12-07T17:07:14.682Z,102003.81
2023-12-07T17:10:18.605Z,102008.09
2023-12-07T17:13:22.371Z,102006.31
2023-12-07T17:16:26.264Z,102014.00
2023-12-07T17:19:35.324Z,102011.25
2023-12-07T17:22:43.649Z,102019.78
2023-12-07T17:25:47.524Z,102025.66
2023-12-07T17:28:51.245Z,102019.53
2023-12-07T17:31:55.132Z,102020.28
2023-12-07T17:35:00.152Z,102011.56
2023-12-07T17:38:05.399Z,102010.69
2023-12-07T17:41:10.743Z,102003.91
2023-12-07T17:44:14.562Z,102001.22
2023-12-07T17:47:18.852Z,101997.81
2023-12-07T17:50:22.999Z,101999.56
2023-12-07T17:53:28.399Z,102001.34
2023-12-07T17:56:32.106Z,102000.50
2023-12-07T17:59:36.053Z,101997.88
2023-12-07T18:02:40.083Z,102008.22
2023-12-07T18:05:44.047Z,102009.19
2023-12-07T18:08:49.240Z,102003.09
2023-12-07T18:11:53.478Z,102007.50
2023-12-07T18:14:57.760Z,102011.84
2023-12-07T18:18:01.763Z,102022.19
2023-12-07T18:21:07.298Z,102023.00
2023-12-07T18:24:13.018Z,102016.19
2023-12-07T18:27:17.108Z,102017.81
2023-12-07T18:30:20.972Z,102017.81
2023-12-07T18:33:24.830Z,102018.75
2023-12-07T18:36:28.720Z,102016.06
2023-12-07T18:39:34.063Z,102013.50
2023-12-07T18:42:38.493Z,102010.84
2023-12-07T18:45:43.411Z,102021.88
2023-12-07T18:48:47.369Z,102019.09
2023-12-07T18:51:51.235Z,102012.97
2023-12-07T18:54:56.422Z,102013.75
2023-12-07T18:58:00.280Z,102012.81
2023-12-07T19:01:04.805Z,102007.38
2023-12-07T19:04:08.785Z,102006.34
2023-12-07T19:07:12.832Z,102009.78
2023-12-07T19:10:18.663Z,102014.22
2023-12-07T19:13:22.543Z,102017.66
2023-12-07T19:16:26.278Z,102008.19
2023-12-07T19:19:30.810Z,102017.53
2023-12-07T19:22:34.537Z,102020.19
2023-12-07T19:25:39.993Z,102018.31
2023-12-07T19:28:43.910Z,102014.91
2023-12-07T19:31:47.715Z,102015.66
2023-12-07T19:34:51.537Z,102021.72
2023-12-07T19:37:55.328Z,102017.38
2023-12-07T19:41:00.510Z,102016.31
2023-12-07T19:44:04.224Z,102019.78
2023-12-07T19:47:08.079Z,102016.34
2023-12-07T19:50:13.299Z,102017.03
2023-12-07T19:53:17.975Z,102018.81
2023-12-07T19:56:23.558Z,102021.47
2023-12-07T19:59:27.323Z,102017.13
2023-12-07T20:02:31.486Z,102021.34
2023-12-07T20:05:35.876Z,102017.75
2023-12-07T20:08:40.166Z,101999.81
2023-12-07T20:11:45.781Z,101992.72
2023-12-07T20:14:50.044Z,101986.84
2023-12-07T20:17:53.928Z,101995.69
2023-12-07T20:21:00.242Z,101991.41
2023-12-07T20:24:04.542Z,101994.00
2023-12-07T20:27:09.866Z,101991.25
2023-12-07T20:30:14.772Z,101997.34
2023-12-07T20:33:18.921Z,101994.69
2023-12-07T20:36:22.893Z,101997.31
2023-12-07T20:39:26.861Z,102004.22
2023-12-07T20:42:32.173Z,102008.56
2023-12-07T20:45:35.889Z,102005.00
2023-12-07T20:48:39.840Z,101999.84
2023-12-07T20:51:44.037Z,101995.53
2023-12-07T20:54:48.634Z,101988.69
2023-12-07T20:57:53.848Z,101976.59
2023-12-07T21:00:57.811Z,101968.09
2023-12-07T21:04:01.840Z,101950.97
2023-12-07T21:07:06.076Z,101944.94
2023-12-07T21:10:10.197Z,101953.66
2023-12-07T21:13:15.705Z,101934.63
2023-12-07T21:16:19.634Z,101937.19
2023-12-07T21:19:25.532Z,101915.63
2023-12-07T21:22:29.588Z,101909.66
2023-12-07T21:25:33.397Z,101897.50
2023-12-07T21:28:38.562Z,101892.53
2023-12-07T21:31:42.341Z,101889.81
2023-12-07T21:34:46.467Z,101881.25
2023-12-07T21:37:50.437Z,101867.47
2023-12-07T21:40:54.184Z,101861.41
2023-12-07T21:43:59.477Z,101856.13
2023-12-07T21:47:06.421Z,101844.09
2023-12-07T21:50:10.797Z,101832.81
2023-12-07T21:53:14.674Z,101825.16
2023-12-07T21:56:18.417Z,101815.75
2023-12-07T21:59:23.551Z,101802.78
2023-12-07T22:02:27.332Z,101802.78
2023-12-07T22:05:31.590Z,101797.47
2023-12-07T22:08:35.500Z,101789.84
2023-12-07T22:11:40.866Z,101789.78
2023-12-07T22:14:46.038Z,101784.56
2023-12-07T22:17:50.015Z,101785.41
2023-12-07T22:20:53.823Z,101791.44
2023-12-07T22:23:57.690Z,101772.31
2023-12-07T22:27:01.450Z,101773.28
2023-12-07T22:30:08.552Z,101768.00
2023-12-07T22:33:14.326Z,101756.00
2023-12-07T22:36:19.011Z,101746.44
2023-12-07T22:39:22.812Z,101749.09
2023-12-07T22:42:26.808Z,101730.16
2023-12-07T22:45:32.254Z,101727.69
2023-12-07T22:48:36.153Z,101722.44
2023-12-07T22:51:39.928Z,101713.00
2023-12-07T22:54:43.788Z,101712.84
2023-12-07T22:57:47.580Z,101719.84
2023-12-07T23:00:53.468Z,101715.50
2023-12-07T23:03:59.152Z,101729.22
2023-12-07T23:07:03.275Z,101737.09
2023-12-07T23:10:08.650Z,101725.00
2023-12-07T23:13:12.503Z,101727.50
2023-12-07T23:16:18.059Z,101715.41
2023-12-07T23:19:22.037Z,101705.38
2023-12-07T23:22:25.875Z,101701.03
2023-12-07T23:25:29.694Z,101691.63
2023-12-07T23:28:33.395Z,101683.06
2023-12-07T23:31:38.755Z,101675.34
2023-12-07T23:34:42.862Z,101669.41
2023-12-07T23:37:46.877Z,101654.78
2023-12-07T23:40:50.690Z,101647.88
2023-12-07T23:43:55.411Z,101639.31
2023-12-07T23:47:00.851Z,101623.91
2023-12-07T23:50:04.911Z,101612.84
2023-12-07T23:53:08.718Z,101603.41
2023-12-07T23:56:13.288Z,101593.13
2023-12-07T23:59:17.060Z,101588.13
